Weather observations for the past three days for
Evanston-Uinta County Airport - Burns Field
Metric (Imperial)
Date Time (mdt) Wind (kph) Vis. (km) Weather Sky Cond. Temperature (ºC) Relative Humidity Wind Chill (°C) Heat Index (°C) Pressure Precipitation (cm)
Air Dwpt 6 hour altimeter (cm) sea level (mb) 1 hr 3 hr 6 hr
Max. Min.
09 01:53 W 19 16.09 Fair CLR 7.8 -2.2 50% 5 76.48 1013.0
09 00:53 NW 15 16.09 Fair CLR 8.3 -1.7 50% 6 76.5 1012.8
08 23:53 W 13 16.09 Fair CLR 8.3 -1.7 17.2 8.3 50% 6 76.48 1012.7
08 22:53 W 11 16.09 Fair CLR 9.4 -2.2 44% 8 76.5 1013.1
08 21:53 SW 11 16.09 Fair CLR 9.4 -2.2 44% 8 76.48 1013.1
08 20:53 W 19 16.09 Fair CLR 10.6 -2.2 41% 76.43 1012.7
08 19:53 W 15 16.09 Fair CLR 14.4 -2.2 32% 76.4 1012.4
08 18:53 W 28 G 39 16.09 A Few Clouds FEW080 16.7 -2.8 26% 76.4 1012.8
08 17:53 W 20 G 33 16.09 Fair CLR 17.2 -1.7 18.3 15.6 28% 76.43 1013.0
08 16:53 W 33 G 48 16.09 A Few Clouds and Breezy FEW080 17.8 -1.7 27% 76.43 1012.6
08 15:53 W 35 G 56 16.09 Fair and Breezy CLR 17.8 -1.1 28% 76.43 1012.4
08 14:53 W 28 G 44 16.09 Fair CLR 17.8 -2.2 26% 76.45 1012.5
08 13:53 W 33 G 54 16.09 Fair and Breezy CLR 16.7 -2.8 26% 76.45 1012.5
08 12:53 W 31 G 54 16.09 Fair CLR 16.7 -2.8 26% 76.48 1012.7
08 11:53 W 28 G 41 16.09 Fair CLR 16.1 -2.8 16.1 2.2 27% 76.5 1013.0
08 10:53 W 26 G 41 16.09 Fair CLR 15 -3.9 27% 76.53 1013.7
08 09:53 W 26 G 39 16.09 Fair CLR 13.9 -3.3 30% 76.5 1013.5
08 08:53 SW 15 16.09 Fair CLR 11.7 -0.6 43% 76.5 1013.2
08 07:53 SW 11 16.09 Fair CLR 7.2 -1.7 54% 5 76.48 1013.7
08 06:53 SW 15 16.09 Fair CLR 3.3 -2.2 68% 0 76.45 1014.0
08 05:53 SW 17 16.09 Fair CLR 2.8 -1.7 9.4 2.8 73% -1 76.43 1013.7
08 04:53 SW 17 16.09 Fair CLR 4.4 -1.7 65% 1 76.4 1013.2
08 03:53 SW 11 16.09 Fair CLR 5.6 -1.7 60% 3 76.43 1013.0
08 02:53 SW 9 16.09 Fair CLR 6.7 -1.7 55% 5 76.43 1012.8
08 01:53 W 9 16.09 Fair CLR 7.8 -1.7 51% 6 76.45 1012.6
08 00:53 W 9 16.09 Fair CLR 8.3 -1.7 50% 7 76.45 1012.4
07 23:53 SW 11 16.09 Fair CLR 8.9 -1.7 16.1 7.8 48% 7 76.43 1012.2
07 22:53 SW 11 16.09 Fair CLR 8.3 -1.1 52% 7 76.43 1012.7
07 21:53 W 19 16.09 Fair CLR 9.4 -1.1 48% 7 76.43 1012.9
07 20:53 W 17 16.09 Partly Cloudy SCT075 11.1 -1.1 43% 76.4 1012.6
07 19:53 W 33 16.09 Mostly Cloudy and Breezy BKN090 13.3 -1.7 36% 76.35 1011.9
07 18:53 W 24 G 50 16.09 Fair CLR 13.9 -2.2 33% 76.33 1012.4
07 17:53 W 37 G 50 16.09 Partly Cloudy and Breezy SCT095 15 -1.7 17.2 13.9 32% 76.35 1012.8
07 16:53 W 28 G 46 16.09 A Few Clouds FEW120 13.9 -2.8 32% 76.4 1013.4
07 15:53 W 33 G 52 16.09 Fair and Breezy CLR 14.4 -3.3 29% 76.43 1013.9
07 14:53 W 28 G 46 16.09 Fair CLR 14.4 -2.8 31% 76.45 1014.5
07 13:53 W 35 G 54 16.09 Fair and Breezy CLR 15 -2.8 29% 76.45 1013.8
07 12:53 W 35 G 54 16.09 A Few Clouds and Breezy FEW085 16.1 -1.1 31% 76.48 1013.9
07 11:53 W 41 G 61 16.09 A Few Clouds and Breezy FEW090 15 -2.2 15.6 2.8 31% 76.48 1014.3
07 10:53 SW 33 G 50 16.09 Partly Cloudy and Breezy FEW080 SCT095 13.9 -2.2 33% 76.5 1014.6
07 09:53 SW 33 G 43 16.09 Partly Cloudy and Breezy SCT100 11.7 -2.2 38% 76.53 1016.1
07 08:53 SW 26 16.09 Mostly Cloudy BKN085 8.3 -2.8 46% 5 76.56 1016.2
07 07:53 SW 20 16.09 Mostly Cloudy BKN070 BKN110 6.1 -3.9 49% 3 76.56 1016.0
07 06:53 SW 15 16.09 Fair CLR 3.9 -3.9 57% 1 76.53 1016.1
07 05:53 SW 20 16.09 Partly Cloudy FEW070 FEW080 SCT110 2.8 -4.4 3.9 2.2 59% -1 76.53 1016.1
07 04:53 SW 24 16.09 Fair CLR 3.3 -4.4 57% -1 76.53 1016.4
07 03:53 SW 24 G 37 16.09 Fair CLR 3.3 -5 55% -1 76.56 1017.1
07 02:53 SW 22 16.09 Fair CLR 2.2 -4.4 62% -2 76.61 1018.5
07 01:53 SW 20 16.09 Fair CLR 3.3 -4.4 57% -1 76.63 1018.9
07 00:53 SW 19 16.09 Fair CLR 3.3 -4.4 57% -1 76.66 1019.6
06 23:53 SW 22 16.09 Fair CLR 3.9 -4.4 11.1 2.8 55% -0 76.66 1020.4
06 22:53 SW 20 16.09 Fair CLR 4.4 -3.9 55% 1 76.66 1020.5
06 21:53 SW 17 16.09 Fair CLR 2.8 -3.3 65% -1 76.68 1021.6
06 20:53 W 19 16.09 Fair CLR 6.1 -3.9 49% 3 76.63 1020.2
06 19:53 W 17 16.09 Fair CLR 9.4 -5 36% 7 76.61 1019.2
06 18:53 W 26 G 41 16.09 Fair CLR 10.6 -6.1 31% 76.58 1019.0
06 17:53 NW 19 G 39 16.09 Fair CLR 11.1 -4.4 11.1 1.7 34% 76.58 1018.7
06 16:53 W 13 16.09 Fair CLR 10 -2.2 43% 8 76.58 1018.8
06 15:53 W 15 G 37 16.09 Fair CLR 8.3 -2.8 46% 6 76.61 1019.7
06 14:53 N 6 G 30 16.09 Fair CLR 6.7 -5 43% 76.63 1020.5
06 13:53 N 11 16.09 Fair CLR 5 -8.3 38% 3 76.63 1020.8
06 12:53 NW 17 16.09 A Few Clouds FEW034 3.9 -5 53% 0 76.63 1021.2
06 11:53 W 15 16.09 Mostly Cloudy BKN026 1.7 -3.9 2.2 -4.4 67% -2 76.63 1020.9
06 10:53 Vrbl 7 16.09 Mostly Cloudy FEW019 BKN029 1.1 -3.9 70% -1 76.58 1020.2
06 09:53 E 9 16.09 A Few Clouds FEW014 -0.6 -5 72% -3 76.53 1019.7
06 08:53 E 7 16.09 Mostly Cloudy SCT011 BKN018 -2.2 -5 81% -5 76.5 1019.6
06 07:53 E 17 16.09 Overcast OVC018 -3.3 -4.4 92% -8 76.48 1019.2
06 06:53 E 7 16.09 Overcast OVC013 -3.9 -5 92% -7 76.4 1017.9
06 05:53 E 15 16.09 A Few Clouds FEW028 -4.4 -5.6 0 -4.4 91% -9 76.33 1016.9 0.08
06 04:53 NE 9 16.09 Partly Cloudy SCT028 -3.3 -5.6 84% -7 76.33 1016.0
06 03:53 E 17 14.48 Overcast SCT055 BKN075 OVC110 -3.3 -4.4 92% -8 76.28 1015.9
06 02:53 E 17 2.01 Light Snow Fog/Mist SCT005 OVC012 -2.8 -3.9 92% -8 76.33 1017.2 0.03 0.08
Date Time (mdt) Wind (kph) Vis. (km) Weather Sky Cond. Air Dwpt Max. Min. Relative Humidity Wind Chill (°C) Heat Index (°C) altimeter (cm) sea level (mb) 1 hr 3 hr 6 hr
6 hour
Temperature (ºC) Pressure Precipitation (cm)